Time;durP1;ratioP1;P1;durP2;ratioP2;P2;SDS_P1;SDS_P2;PMS_P1;PMS_P2;Temp;Humidity;BMP_temperature;BMP_pressure;BME280_temperature;BME280_humidity;BME280_pressure;Samples;Min_cycle;Max_cycle;Signal;HPM_P1;HPM_P2
2023/04/22 00:00:35;;;;;;;5.97;5.37;;;;;;;11.49;100.00;97522.72;4994572;28;20210;-76
2023/04/22 00:03:03;;;;;;;7.03;5.70;;;;;;;11.50;100.00;97521.75;4994860;28;20244;-76
2023/04/22 00:05:30;;;;;;;6.63;5.93;;;;;;;11.48;100.00;97523.66;4994830;28;20718;-77
2023/04/22 00:07:57;;;;;;;7.67;5.77;;;;;;;11.43;100.00;97517.94;4995053;28;20209;-76
2023/04/22 00:10:25;;;;;;;7.17;5.63;;;;;;;11.39;100.00;97508.56;4993995;28;20231;-76
2023/04/22 00:12:51;;;;;;;6.67;5.73;;;;;;;11.36;100.00;97514.06;4994914;28;20232;-76
2023/04/22 00:15:20;;;;;;;6.93;6.23;;;;;;;11.33;100.00;97517.00;4994760;28;20221;-76
2023/04/22 00:17:46;;;;;;;8.53;6.77;;;;;;;11.34;100.00;97513.38;4994822;28;20658;-76
2023/04/22 00:20:14;;;;;;;7.27;6.37;;;;;;;11.39;100.00;97522.63;4994027;28;20209;-76
2023/04/22 00:22:40;;;;;;;8.03;6.43;;;;;;;11.44;100.00;97522.25;4991907;28;20295;-76
2023/04/22 00:25:08;;;;;;;8.23;6.23;;;;;;;11.44;100.00;97516.97;4991292;28;20218;-76
2023/04/22 00:27:36;;;;;;;7.27;6.37;;;;;;;11.48;100.00;97518.38;4991780;28;20212;-76
2023/04/22 00:30:03;;;;;;;8.03;5.90;;;;;;;11.50;100.00;97509.34;4990705;28;20252;-75
2023/04/22 00:32:29;;;;;;;8.90;6.23;;;;;;;11.54;100.00;97507.28;4991432;28;20249;-75
2023/04/22 00:34:56;;;;;;;8.50;6.87;;;;;;;11.48;100.00;97507.78;4991369;28;20236;-76
2023/04/22 00:37:23;;;;;;;8.00;7.20;;;;;;;11.47;100.00;97508.75;4991325;28;20209;-75
2023/04/22 00:39:49;;;;;;;9.00;6.90;;;;;;;11.41;100.00;97506.59;4990485;28;20221;-75
2023/04/22 00:42:16;;;;;;;7.37;6.60;;;;;;;11.38;100.00;97506.88;4991418;28;20240;-75
2023/04/22 00:44:47;;;;;;;7.53;6.37;;;;;;;11.32;100.00;97518.78;4991064;28;20218;-75
2023/04/22 00:47:13;;;;;;;8.13;6.80;;;;;;;11.30;100.00;97510.13;4991344;28;20221;-75
2023/04/22 00:49:40;;;;;;;8.17;6.53;;;;;;;11.28;100.00;97514.72;4990516;28;20207;-75
2023/04/22 00:52:06;;;;;;;7.30;6.50;;;;;;;11.26;100.00;97510.53;4990953;28;20258;-75
2023/04/22 00:54:35;;;;;;;8.40;6.90;;;;;;;11.25;100.00;97511.50;4990943;28;20214;-75
2023/04/22 00:57:02;;;;;;;7.17;6.47;;;;;;;11.23;100.00;97513.41;4991323;28;20229;-74
2023/04/22 00:59:29;;;;;;;7.67;6.87;;;;;;;11.21;100.00;97512.69;4989409;28;20222;-76
2023/04/22 01:01:58;;;;;;;7.50;6.70;;;;;;;11.17;100.00;97519.19;4988001;28;20224;-76
2023/04/22 01:04:24;;;;;;;9.17;7.33;;;;;;;11.20;100.00;97518.97;4988053;28;20224;-76
2023/04/22 01:06:51;;;;;;;8.23;7.23;;;;;;;11.17;100.00;97520.03;4988549;28;20210;-76
2023/04/22 01:09:19;;;;;;;8.03;6.70;;;;;;;11.18;100.00;97511.13;4989845;28;20218;-76
2023/04/22 01:11:46;;;;;;;8.20;7.07;;;;;;;11.18;100.00;97505.84;4990778;28;20228;-76
2023/04/22 01:14:13;;;;;;;8.47;7.60;;;;;;;11.20;100.00;97508.38;4991027;28;20223;-77
2023/04/22 01:16:42;;;;;;;7.70;6.90;;;;;;;11.21;100.00;97504.75;5004657;28;20208;-76
2023/04/22 01:19:10;;;;;;;9.47;7.37;;;;;;;11.23;100.00;97503.69;5009018;28;20666;-76
2023/04/22 01:21:39;;;;;;;8.50;7.50;;;;;;;11.24;100.00;97509.78;5008857;28;20216;-78
2023/04/22 01:24:08;;;;;;;8.60;7.10;;;;;;;11.22;100.00;97507.28;4990505;28;20268;-76
2023/04/22 01:26:34;;;;;;;8.00;6.87;;;;;;;11.20;100.00;97505.72;4990611;28;20210;-75
2023/04/22 01:29:02;;;;;;;7.70;6.90;;;;;;;11.19;100.00;97510.16;4990057;28;20219;-75
2023/04/22 01:31:30;;;;;;;7.80;7.00;;;;;;;11.18;100.00;97505.84;4989954;28;20299;-77
2023/04/22 01:33:58;;;;;;;8.40;7.07;;;;;;;11.14;100.00;97514.16;4990021;28;20218;-75
2023/04/22 01:36:24;;;;;;;7.87;7.00;;;;;;;11.14;100.00;97511.53;4990626;28;20213;-76
2023/04/22 01:38:51;;;;;;;7.53;6.77;;;;;;;11.13;100.00;97512.50;4990278;28;20208;-76
2023/04/22 01:41:19;;;;;;;7.77;6.57;;;;;;;11.12;100.00;97511.63;4990013;28;20524;-76
2023/04/22 01:43:46;;;;;;;8.23;6.97;;;;;;;11.08;100.00;97504.91;4990421;28;20228;-76
2023/04/22 01:46:13;;;;;;;7.37;6.67;;;;;;;11.03;100.00;97506.25;4990162;28;20221;-76
2023/04/22 01:48:40;;;;;;;8.27;7.10;;;;;;;11.00;100.00;97517.09;4990598;28;20218;-77
2023/04/22 01:51:06;;;;;;;8.43;7.33;;;;;;;10.95;100.00;97512.16;4989548;28;20236;-76
2023/04/22 01:53:33;;;;;;;8.80;7.43;;;;;;;10.92;100.00;97514.19;4990297;28;20249;-76
2023/04/22 01:55:59;;;;;;;8.50;7.50;;;;;;;10.89;100.00;97522.41;4990149;28;20216;-76
2023/04/22 01:58:30;;;;;;;8.20;7.40;;;;;;;10.85;100.00;97513.03;4990229;28;20414;-75
2023/04/22 02:00:56;;;;;;;9.00;7.03;;;;;;;10.82;100.00;97519.38;4989174;28;20206;-76
2023/04/22 02:03:23;;;;;;;7.90;7.10;;;;;;;10.78;100.00;97511.84;4990234;28;20229;-75
2023/04/22 02:05:49;;;;;;;8.30;7.47;;;;;;;10.76;100.00;97509.31;4990023;28;20206;-76
2023/04/22 02:08:16;;;;;;;8.00;7.20;;;;;;;10.75;100.00;97514.69;4989805;28;20704;-76
2023/04/22 02:10:42;;;;;;;9.43;7.57;;;;;;;10.72;100.00;97522.88;4989145;28;20244;-75
2023/04/22 02:13:09;;;;;;;8.13;6.70;;;;;;;10.72;100.00;97522.88;4989704;28;20235;-75
2023/04/22 02:15:38;;;;;;;8.27;7.43;;;;;;;10.69;100.00;97523.13;4989673;28;20208;-75
2023/04/22 02:18:05;;;;;;;8.80;7.90;;;;;;;10.65;100.00;97532.28;4989907;28;20212;-76
2023/04/22 02:20:32;;;;;;;7.93;7.13;;;;;;;10.58;100.00;97534.53;4989143;28;20682;-75
2023/04/22 02:22:58;;;;;;;9.10;7.63;;;;;;;10.54;100.00;97534.91;4989780;28;20226;-76
2023/04/22 02:25:25;;;;;;;7.63;6.80;;;;;;;10.45;100.00;97540.94;4989728;28;20212;-77
2023/04/22 02:27:52;;;;;;;8.37;7.47;;;;;;;10.40;100.00;97538.63;4989634;28;20218;-76
2023/04/22 02:30:18;;;;;;;8.10;7.13;;;;;;;10.36;100.00;97541.63;4989254;28;20211;-76
2023/04/22 02:32:46;;;;;;;8.17;7.30;;;;;;;10.31;100.00;97535.84;4997811;23;20249;-74
2023/04/22 02:35:13;;;;;;;8.60;7.70;;;;;;;10.30;100.00;97536.81;4970006;28;20661;-75
2023/04/22 02:37:39;;;;;;;7.90;7.10;;;;;;;10.29;100.00;97537.78;4969845;28;20225;-75
2023/04/22 02:40:07;;;;;;;9.93;7.60;;;;;;;10.28;100.00;97538.75;4969234;28;20221;-75
2023/04/22 02:42:34;;;;;;;9.57;7.73;;;;;;;10.26;100.00;97532.72;4969638;28;20670;-75
2023/04/22 02:45:00;;;;;;;8.57;7.67;;;;;;;10.23;100.00;97538.25;4969529;28;20224;-75
2023/04/22 02:47:27;;;;;;;8.80;7.90;;;;;;;10.21;100.00;97534.91;4969312;28;20224;-75
2023/04/22 02:49:54;;;;;;;7.93;7.13;;;;;;;10.25;100.00;97546.88;4969224;28;20227;-75
2023/04/22 02:52:21;;;;;;;9.30;7.70;;;;;;;10.27;100.00;97545.00;4969461;28;20238;-75
2023/04/22 02:54:47;;;;;;;10.30;8.57;;;;;;;10.30;100.00;97539.47;4969807;28;20216;-75
2023/04/22 02:57:14;;;;;;;9.83;8.30;;;;;;;10.30;100.00;97544.75;4969567;28;20208;-75
2023/04/22 02:59:40;;;;;;;9.90;8.47;;;;;;;10.29;100.00;97546.53;4968774;28;20218;-75
2023/04/22 03:02:08;;;;;;;9.27;8.33;;;;;;;10.23;100.00;97543.53;4969509;28;20218;-75
2023/04/22 03:04:36;;;;;;;8.97;7.93;;;;;;;10.19;100.00;97542.06;4969331;28;20247;-75
2023/04/22 03:07:04;;;;;;;8.77;7.87;;;;;;;10.16;100.00;97537.06;4969553;28;20392;-75
2023/04/22 03:09:31;;;;;;;9.37;7.93;;;;;;;10.13;100.00;97538.13;4968729;28;20218;-75
2023/04/22 03:11:57;;;;;;;9.33;7.70;;;;;;;10.13;100.00;97534.63;4969616;28;20230;-75
2023/04/22 03:14:24;;;;;;;9.27;8.10;;;;;;;10.11;100.00;97537.41;4969423;28;20686;-74
2023/04/22 03:16:50;;;;;;;8.93;8.00;;;;;;;10.07;100.00;97535.94;4969420;28;20674;-75
2023/04/22 03:19:16;;;;;;;9.17;8.27;;;;;;;10.01;100.00;97535.53;4968687;28;20212;-75
2023/04/22 03:21:43;;;;;;;9.43;7.97;;;;;;;9.98;100.00;97531.31;4969223;28;20223;-75
2023/04/22 03:24:11;;;;;;;10.60;8.33;;;;;;;9.95;100.00;97533.34;4968991;28;20241;-75
2023/04/22 03:26:37;;;;;;;9.47;8.43;;;;;;;9.90;100.00;97523.16;4969438;28;20259;-75
2023/04/22 03:29:04;;;;;;;8.50;7.60;;;;;;;9.87;100.00;97533.09;4969324;28;20389;-75
2023/04/22 03:31:30;;;;;;;9.93;8.53;;;;;;;9.80;100.00;97532.72;4968716;28;20239;-75
2023/04/22 03:33:57;;;;;;;8.83;7.90;;;;;;;9.77;100.00;97532.13;4968877;28;20250;-75
2023/04/22 03:36:23;;;;;;;9.67;8.50;;;;;;;9.78;100.00;97533.81;4969140;28;20216;-75
2023/04/22 03:38:50;;;;;;;11.50;8.80;;;;;;;9.86;100.00;97531.44;4969090;28;20212;-75
2023/04/22 03:41:18;;;;;;;10.77;8.77;;;;;;;9.84;100.00;97543.91;4968417;28;20744;-75
2023/04/22 03:43:44;;;;;;;10.03;8.53;;;;;;;9.73;100.00;97541.22;4968995;28;20226;-75
2023/04/22 03:46:11;;;;;;;9.07;7.53;;;;;;;9.67;100.00;97544.34;4969174;28;20221;-75
2023/04/22 03:48:37;;;;;;;9.73;8.40;;;;;;;9.69;100.00;97539.78;4969091;28;20213;-75
2023/04/22 03:51:04;;;;;;;9.07;8.03;;;;;;;9.66;100.00;97530.28;4968083;28;20213;-75
2023/04/22 03:53:30;;;;;;;9.57;8.07;;;;;;;9.76;100.00;97536.56;4968815;28;20609;-75
2023/04/22 03:55:57;;;;;;;8.87;7.97;;;;;;;9.72;100.00;97536.91;4968917;28;20222;-75
2023/04/22 03:58:24;;;;;;;9.17;7.97;;;;;;;9.62;100.00;97541.19;4971845;28;20213;-75
2023/04/22 04:00:51;;;;;;;8.30;7.37;;;;;;;9.53;100.00;97542.72;4971379;28;20214;-75
2023/04/22 04:03:17;;;;;;;9.27;7.60;;;;;;;9.49;100.00;97545.69;4971954;28;20242;-75
2023/04/22 04:05:44;;;;;;;7.93;7.13;;;;;;;9.48;100.00;97541.38;4971928;28;20215;-75
2023/04/22 04:08:11;;;;;;;8.40;7.50;;;;;;;9.50;100.00;97539.47;4972166;28;20217;-76
2023/04/22 04:10:37;;;;;;;9.20;8.20;;;;;;;9.50;100.00;97540.31;4971635;28;20218;-75
2023/04/22 04:13:04;;;;;;;10.00;8.53;;;;;;;9.55;100.00;97539.97;4971952;28;20231;-75
2023/04/22 04:15:32;;;;;;;11.80;8.20;;;;;;;9.55;100.00;97532.06;4972103;28;20262;-75
2023/04/22 04:18:00;;;;;;;9.43;8.43;;;;;;;9.58;100.00;97532.66;4972039;28;20221;-75
2023/04/22 04:20:26;;;;;;;11.80;8.53;;;;;;;9.59;100.00;97528.22;4971114;28;20263;-75
2023/04/22 04:22:53;;;;;;;12.33;9.43;;;;;;;9.57;100.00;97536.25;4971721;28;20235;-75
2023/04/22 04:25:20;;;;;;;11.37;9.47;;;;;;;9.54;100.00;97531.19;4971914;28;20212;-75
2023/04/22 04:27:46;;;;;;;10.87;9.53;;;;;;;9.52;100.00;97521.72;4972026;28;20265;-75
2023/04/22 04:30:15;;;;;;;10.10;9.07;;;;;;;9.54;100.00;97525.91;4971207;28;20203;-75
2023/04/22 04:32:44;;;;;;;10.87;9.30;;;;;;;9.58;100.00;97522.13;4971353;28;20247;-75
2023/04/22 04:35:11;;;;;;;10.67;8.83;;;;;;;9.62;100.00;97530.63;4972021;28;20224;-75
2023/04/22 04:37:39;;;;;;;10.30;8.70;;;;;;;9.66;100.00;97535.56;4972034;28;20211;-75
2023/04/22 04:40:07;;;;;;;9.00;8.10;;;;;;;9.64;100.00;97532.22;4971055;28;20625;-75
2023/04/22 04:42:33;;;;;;;11.13;8.93;;;;;;;9.68;100.00;97527.53;4971563;28;20231;-76
2023/04/22 04:45:00;;;;;;;9.97;8.80;;;;;;;9.67;100.00;97525.88;4971603;28;20219;-75
2023/04/22 04:47:27;;;;;;;13.03;9.70;;;;;;;9.65;100.00;97517.19;4971349;28;20211;-76
2023/04/22 04:49:57;;;;;;;10.40;8.83;;;;;;;9.70;100.00;97520.34;4970839;28;20301;-75
2023/04/22 04:52:23;;;;;;;11.10;8.60;;;;;;;9.73;100.00;97514.84;4971433;28;20241;-76
2023/04/22 04:54:50;;;;;;;10.73;8.73;;;;;;;9.77;100.00;97532.13;4971220;28;20223;-75
2023/04/22 04:57:16;;;;;;;10.57;8.53;;;;;;;9.80;100.00;97531.91;4971654;28;20239;-75
2023/04/22 04:59:43;;;;;;;10.53;9.13;;;;;;;9.83;100.00;97518.44;4970521;28;20215;-75
2023/04/22 05:02:09;;;;;;;9.80;8.80;;;;;;;9.85;100.00;97521.84;4971365;28;20208;-75
2023/04/22 05:04:36;;;;;;;9.77;8.73;;;;;;;9.87;100.00;97518.13;4971155;28;20239;-75
2023/04/22 05:07:04;;;;;;;10.03;8.00;;;;;;;9.86;100.00;97516.41;4971191;28;20212;-75
2023/04/22 05:09:35;;;;;;;11.43;8.23;;;;;;;9.87;100.00;97523.41;4969923;28;20236;-75
2023/04/22 05:12:02;;;;;;;10.13;8.43;;;;;;;9.88;100.00;97516.31;4971199;28;20327;-75
2023/04/22 05:14:28;;;;;;;9.90;8.50;;;;;;;9.95;100.00;97525.44;4970980;28;20239;-75
2023/04/22 05:16:55;;;;;;;9.83;8.67;;;;;;;9.93;100.00;97517.66;4971266;28;20220;-75
2023/04/22 05:19:21;;;;;;;8.77;7.60;;;;;;;9.95;100.00;97530.72;4970256;28;20228;-75
2023/04/22 05:21:48;;;;;;;11.40;8.00;;;;;;;9.94;100.00;97513.19;4971018;28;20206;-75
2023/04/22 05:24:16;;;;;;;9.07;7.37;;;;;;;9.94;100.00;97526.41;4970798;28;20415;-75
2023/04/22 05:26:42;;;;;;;8.07;7.17;;;;;;;9.97;100.00;97524.38;4970925;28;20361;-75
2023/04/22 05:29:09;;;;;;;9.20;7.30;;;;;;;10.02;100.00;97524.00;4970155;28;20678;-75
2023/04/22 05:31:35;;;;;;;7.63;6.80;;;;;;;10.04;100.00;97527.44;4971075;28;20280;-75
2023/04/22 05:34:02;;;;;;;9.57;7.40;;;;;;;10.09;100.00;97527.91;4970581;28;20248;-74
2023/04/22 05:36:28;;;;;;;8.90;7.40;;;;;;;10.11;100.00;97526.00;4970845;28;20221;-75
2023/04/22 05:38:55;;;;;;;9.03;7.47;;;;;;;10.16;100.00;97523.84;4970702;28;20216;-76
2023/04/22 05:41:23;;;;;;;9.03;7.33;;;;;;;10.16;100.00;97531.78;4970005;28;20211;-75
2023/04/22 05:43:49;;;;;;;9.27;7.47;;;;;;;10.21;100.00;97533.09;4970349;28;20336;-75
2023/04/22 05:46:16;;;;;;;8.27;7.13;;;;;;;10.25;100.00;97538.97;4970785;28;20223;-75
2023/04/22 05:48:42;;;;;;;7.87;7.07;;;;;;;10.29;100.00;97529.84;4970375;28;20215;-75
2023/04/22 05:51:09;;;;;;;9.47;7.40;;;;;;;10.34;100.00;97538.28;4969931;28;20583;-74
2023/04/22 05:53:35;;;;;;;7.77;6.83;;;;;;;10.44;100.00;97540.06;4970138;28;20249;-76
2023/04/22 05:56:02;;;;;;;9.10;7.57;;;;;;;10.50;100.00;97539.59;4969850;28;20650;-74
2023/04/22 05:58:29;;;;;;;8.87;7.63;;;;;;;10.60;100.00;97540.56;4970723;28;20216;-75
2023/04/22 06:00:56;;;;;;;8.33;7.30;;;;;;;10.68;100.00;97542.59;4969307;28;20669;-75
2023/04/22 06:03:22;;;;;;;9.93;7.13;;;;;;;10.83;100.00;97541.38;4970161;28;20249;-75
2023/04/22 06:05:49;;;;;;;8.00;7.13;;;;;;;10.92;100.00;97545.94;4970452;28;20245;-75
2023/04/22 06:08:18;;;;;;;8.30;7.40;;;;;;;11.11;100.00;97538.19;4970198;28;20226;-75
2023/04/22 06:10:44;;;;;;;9.57;7.47;;;;;;;11.42;100.00;97534.75;4969624;28;20210;-75
2023/04/22 06:13:11;;;;;;;9.20;8.03;;;;;;;11.74;100.00;97538.28;4970078;28;20248;-75
2023/04/22 06:15:39;;;;;;;9.63;7.77;;;;;;;11.93;100.00;97531.28;4970426;28;20226;-75
2023/04/22 06:18:06;;;;;;;11.07;7.87;;;;;;;12.16;100.00;97537.31;4969958;28;20210;-75
2023/04/22 06:20:34;;;;;;;12.77;8.37;;;;;;;12.46;100.00;97534.72;4968165;28;20619;-75
2023/04/22 06:23:01;;;;;;;8.30;7.13;;;;;;;12.63;100.00;97531.41;4970170;28;20229;-75
2023/04/22 06:25:27;;;;;;;8.70;7.60;;;;;;;12.67;100.00;97524.88;4969926;28;20222;-75
2023/04/22 06:27:54;;;;;;;8.33;7.53;;;;;;;12.65;100.00;97529.50;4970014;28;20562;-74
2023/04/22 06:30:20;;;;;;;8.17;7.37;;;;;;;12.66;100.00;97525.88;4969495;28;20214;-74
2023/04/22 06:32:48;;;;;;;7.73;6.93;;;;;;;12.57;100.00;97534.59;4969610;28;20246;-74
2023/04/22 06:35:15;;;;;;;8.23;6.97;;;;;;;12.61;100.00;97538.69;4969843;28;20246;-74
2023/04/22 06:37:42;;;;;;;8.53;7.63;;;;;;;12.64;100.00;97544.56;4970036;28;20217;-74
2023/04/22 06:40:10;;;;;;;7.33;6.57;;;;;;;12.75;100.00;97546.25;4969299;28;20221;-74
2023/04/22 06:42:36;;;;;;;9.17;7.33;;;;;;;12.88;100.00;97544.22;4970052;28;20239;-74
2023/04/22 06:45:03;;;;;;;8.37;7.40;;;;;;;12.95;100.00;97548.03;4969698;28;20238;-74
2023/04/22 06:47:30;;;;;;;9.23;7.20;;;;;;;13.04;100.00;97548.09;4969713;28;20211;-74
2023/04/22 06:49:58;;;;;;;7.93;6.97;;;;;;;13.14;100.00;97553.44;4968933;28;20298;-74
2023/04/22 06:52:24;;;;;;;7.50;6.67;;;;;;;13.19;100.00;97548.53;4969298;28;20235;-74
2023/04/22 06:54:51;;;;;;;8.07;6.97;;;;;;;13.23;100.00;97541.97;4969591;28;20232;-74
2023/04/22 06:57:17;;;;;;;8.60;7.00;;;;;;;13.17;100.00;97542.53;4969481;28;20214;-74
2023/04/22 06:59:45;;;;;;;9.43;7.03;;;;;;;13.17;100.00;97547.84;4968676;28;20696;-74
2023/04/22 07:02:11;;;;;;;8.03;7.23;;;;;;;13.18;100.00;97550.34;4969603;28;20294;-74
2023/04/22 07:04:38;;;;;;;8.93;7.30;;;;;;;13.27;100.00;97538.91;4969395;28;20732;-74
2023/04/22 07:07:06;;;;;;;8.00;6.57;;;;;;;13.39;100.00;97539.66;4969440;28;20217;-74
2023/04/22 07:09:32;;;;;;;8.73;7.00;;;;;;;13.48;100.00;97539.66;4968917;28;20241;-74
2023/04/22 07:12:00;;;;;;;8.67;7.40;;;;;;;13.63;100.00;97542.75;4969600;28;20218;-74
2023/04/22 07:14:26;;;;;;;9.57;7.67;;;;;;;13.70;100.00;97547.34;4969300;28;20700;-74
2023/04/22 07:16:53;;;;;;;7.60;6.67;;;;;;;13.83;100.00;97541.75;4969312;28;20211;-74
2023/04/22 07:19:20;;;;;;;6.87;6.20;;;;;;;13.99;100.00;97536.72;4968884;28;20216;-74
2023/04/22 07:21:48;;;;;;;8.23;6.93;;;;;;;14.03;100.00;97524.81;4969362;28;20583;-74
2023/04/22 07:24:16;;;;;;;7.50;6.70;;;;;;;14.08;100.00;97528.75;4969500;28;20262;-74
2023/04/22 07:26:43;;;;;;;7.23;6.53;;;;;;;14.12;100.00;97526.66;4969102;28;20224;-74
2023/04/22 07:29:10;;;;;;;7.23;6.43;;;;;;;14.22;100.00;97522.16;4968087;28;20581;-75
2023/04/22 07:31:36;;;;;;;8.88;7.40;;;;;;;14.42;100.00;97518.50;4968586;28;20525;-75
2023/04/22 07:34:03;;;;;;;7.70;6.93;;;;;;;14.51;99.57;97505.16;4969533;28;20245;-73
2023/04/22 07:36:30;;;;;;;7.30;6.20;;;;;;;14.61;99.23;97510.44;4971526;28;20212;-73
2023/04/22 07:38:57;;;;;;;7.10;6.40;;;;;;;14.74;99.14;97513.63;4971111;28;20223;-73
2023/04/22 07:41:25;;;;;;;6.90;6.20;;;;;;;14.86;99.43;97517.75;4966563;28;20281;-74
2023/04/22 07:43:52;;;;;;;7.17;5.83;;;;;;;15.08;98.08;97509.38;4967377;28;20233;-74
2023/04/22 07:46:19;;;;;;;7.83;6.17;;;;;;;15.20;94.37;97495.72;4970244;28;20216;-74
2023/04/22 07:48:46;;;;;;;7.83;5.90;;;;;;;15.36;93.44;97500.41;4970422;28;20217;-74
2023/04/22 07:51:13;;;;;;;6.20;5.60;;;;;;;15.55;91.83;97510.91;4966890;28;20220;-74
2023/04/22 07:53:39;;;;;;;5.70;5.20;;;;;;;15.78;88.46;97501.50;4969481;28;20312;-74
2023/04/22 07:56:06;;;;;;;6.17;4.90;;;;;;;15.84;85.93;97495.56;4968022;28;20216;-73
2023/04/22 07:58:34;;;;;;;5.20;4.30;;;;;;;15.94;82.23;97488.31;4970522;28;20271;-74
2023/04/22 08:01:00;;;;;;;5.23;4.00;;;;;;;15.98;82.29;97486.00;4954806;28;20645;-74
2023/04/22 08:03:27;;;;;;;4.37;3.97;;;;;;;16.03;83.28;97499.69;4949305;29;20227;-73
2023/04/22 08:05:55;;;;;;;5.67;4.47;;;;;;;16.22;83.68;97512.84;4952511;29;20265;-74
2023/04/22 08:08:22;;;;;;;4.40;4.00;;;;;;;16.28;81.08;97506.06;4952867;29;20215;-73
2023/04/22 08:10:48;;;;;;;4.37;3.97;;;;;;;16.43;80.36;97508.03;4952066;29;20215;-74
2023/04/22 08:13:15;;;;;;;4.40;3.80;;;;;;;16.55;76.29;97492.59;4952172;29;20235;-74
2023/04/22 08:15:43;;;;;;;4.63;3.90;;;;;;;16.56;74.17;97486.25;4952528;29;20219;-74
2023/04/22 08:18:09;;;;;;;3.40;3.10;;;;;;;16.57;73.98;97487.94;4952367;29;20676;-74
2023/04/22 08:20:36;;;;;;;3.67;3.37;;;;;;;16.56;74.08;97489.78;4952157;29;20214;-76
2023/04/22 08:23:02;;;;;;;3.80;3.50;;;;;;;16.54;74.14;97489.09;4952333;29;20231;-75
2023/04/22 08:25:30;;;;;;;4.20;3.80;;;;;;;16.52;75.20;97492.91;4952855;29;20234;-76
2023/04/22 08:27:57;;;;;;;3.50;3.20;;;;;;;16.53;75.53;97497.25;4952323;29;20260;-75
2023/04/22 08:30:23;;;;;;;4.67;4.03;;;;;;;16.52;75.66;97496.41;4951809;29;20210;-75
2023/04/22 08:32:52;;;;;;;4.77;4.13;;;;;;;16.60;75.70;97495.63;4968525;22;20242;-78
2023/04/22 08:35:18;;;;;;;5.50;4.13;;;;;;;16.58;76.70;97501.09;4972186;28;20665;-78
2023/04/22 08:37:45;;;;;;;5.43;4.13;;;;;;;16.58;76.22;97497.63;4972041;28;20226;-78
2023/04/22 08:40:11;;;;;;;4.93;3.93;;;;;;;16.51;75.99;97501.91;4971335;28;20211;-77
2023/04/22 08:42:38;;;;;;;5.60;4.00;;;;;;;16.63;77.42;97511.31;4971735;28;20700;-77
2023/04/22 08:45:05;;;;;;;4.50;4.10;;;;;;;16.79;77.81;97504.25;4970942;28;20226;-79
2023/04/22 08:47:32;;;;;;;6.37;4.00;;;;;;;17.02;76.53;97501.84;4972158;28;20215;-79
2023/04/22 08:50:03;;;;;;;5.00;3.70;;;;;;;17.02;75.66;97496.50;4971414;28;20219;-79
2023/04/22 08:52:30;;;;;;;6.13;3.57;;;;;;;17.11;77.14;97511.53;4971964;28;20214;-77
2023/04/22 08:54:56;;;;;;;4.10;3.70;;;;;;;17.29;73.96;97498.91;4971818;28;20238;-79
2023/04/22 08:57:23;;;;;;;3.90;3.60;;;;;;;17.53;73.63;97491.84;4971885;28;20230;-78
2023/04/22 08:59:51;;;;;;;6.57;4.03;;;;;;;17.60;71.49;97486.66;4970994;28;20297;-77
2023/04/22 09:02:20;;;;;;;4.63;3.50;;;;;;;17.83;75.90;97507.25;4971807;28;20215;-79
2023/04/22 09:04:48;;;;;;;4.23;3.37;;;;;;;18.13;72.04;97479.84;4971771;28;20729;-78
2023/04/22 09:07:22;;;;;;;4.30;3.20;;;;;;;18.40;72.63;97476.00;4971960;28;20211;-76
2023/04/22 09:09:49;;;;;;;4.60;3.67;;;;;;;18.57;74.03;97482.97;4970875;28;20302;-76
2023/04/22 09:12:17;;;;;;;3.70;3.40;;;;;;;18.68;71.12;97467.38;4971689;28;20681;-84
2023/04/22 09:14:44;;;;;;;4.20;3.90;;;;;;;18.84;71.33;97471.84;4971767;28;20280;-77
2023/04/22 09:17:10;;;;;;;4.10;3.53;;;;;;;19.02;69.44;97457.19;4971910;28;20223;-76
2023/04/22 09:19:37;;;;;;;5.30;4.13;;;;;;;19.11;69.58;97460.69;4970777;28;20211;-78
2023/04/22 09:22:04;;;;;;;2.93;2.67;;;;;;;19.20;64.76;97428.34;4971370;28;20214;-75
2023/04/22 09:24:32;;;;;;;3.43;2.90;;;;;;;19.36;64.86;97433.63;4971250;28;20238;-76
2023/04/22 09:27:02;;;;;;;3.40;2.70;;;;;;;19.69;62.00;97418.97;4971373;28;20214;-75
2023/04/22 09:29:30;;;;;;;3.63;2.60;;;;;;;19.83;61.11;97420.88;4970550;28;20218;-78
2023/04/22 09:31:57;;;;;;;4.37;3.00;;;;;;;19.93;58.42;97405.34;4971576;28;20214;-77
2023/04/22 09:34:23;;;;;;;2.70;2.50;;;;;;;19.92;57.83;97398.31;4971256;28;20249;-78
2023/04/22 09:36:51;;;;;;;3.47;2.77;;;;;;;19.93;57.08;97394.63;4971250;28;20207;-76
2023/04/22 09:39:17;;;;;;;2.73;2.50;;;;;;;20.10;61.03;97428.38;4970573;28;20217;-78
2023/04/22 09:41:53;;;;;;;3.30;2.47;;;;;;;20.26;59.03;97414.81;4971808;28;20211;-76
2023/04/22 09:44:20;;;;;;;2.67;2.40;;;;;;;20.13;57.33;97406.56;4971199;28;20230;-78
2023/04/22 09:46:49;;;;;;;2.70;2.40;;;;;;;20.20;56.40;97393.22;4971170;28;20215;-78
2023/04/22 09:49:16;;;;;;;2.60;2.40;;;;;;;20.04;54.87;97386.13;4970321;28;20211;-75
2023/04/22 09:51:42;;;;;;;2.33;1.90;;;;;;;20.09;57.03;97405.25;4971315;28;20246;-75
2023/04/22 09:54:10;;;;;;;2.70;2.50;;;;;;;20.09;57.40;97399.88;4970658;28;20249;-76
2023/04/22 09:56:47;;;;;;;3.30;2.93;;;;;;;20.21;58.69;97414.50;4971070;28;20210;-75
2023/04/22 09:59:14;;;;;;;3.77;3.10;;;;;;;20.35;60.90;97429.78;4970316;28;20215;-75
2023/04/22 10:01:42;;;;;;;6.73;5.70;;;;;;;20.44;60.11;97419.81;4971060;28;20245;-75
2023/04/22 10:04:10;;;;;;;3.00;2.80;;;;;;;20.43;59.15;97412.78;4970633;28;20251;-76
2023/04/22 10:06:36;;;;;;;4.43;3.47;;;;;;;20.56;60.35;97415.66;4970753;28;20243;-75
2023/04/22 10:09:04;;;;;;;3.47;3.10;;;;;;;20.59;60.48;97413.41;4970913;28;20210;-77
2023/04/22 10:11:31;;;;;;;3.00;2.70;;;;;;;20.49;58.93;97399.44;4970242;28;20223;-77
2023/04/22 10:13:59;;;;;;;2.77;2.40;;;;;;;20.41;57.79;97388.78;4970584;28;20719;-76
2023/04/22 10:16:28;;;;;;;3.57;2.27;;;;;;;20.51;58.20;97388.50;4970612;28;20263;-75
2023/04/22 10:18:56;;;;;;;2.67;2.47;;;;;;;20.60;58.71;97398.97;4970892;28;20218;-75
2023/04/22 10:21:24;;;;;;;3.07;2.87;;;;;;;20.55;56.95;97381.75;4970228;28;20218;-76
2023/04/22 10:23:51;;;;;;;3.50;2.70;;;;;;;20.68;58.46;97395.38;4970726;28;20236;-76
2023/04/22 10:26:38;;;;;;;4.87;3.93;;;;;;;20.86;57.50;97396.63;4970703;28;20207;-76
2023/04/22 10:29:08;;;;;;;22.30;9.60;;;;;;;21.02;58.38;97399.16;4970389;28;20712;-76
2023/04/22 10:31:37;;;;;;;35.13;14.97;;;;;;;21.15;54.48;97361.66;4970724;28;20271;-75
2023/04/22 10:34:14;;;;;;;5.10;3.23;;;;;;;21.04;53.91;97359.47;4970709;28;20231;-76
2023/04/22 10:36:58;;;;;;;4.80;2.90;;;;;;;21.09;56.04;97378.56;4970852;28;20224;-75
2023/04/22 10:39:25;;;;;;;2.60;2.40;;;;;;;21.30;55.83;97375.91;4969928;28;20228;-75
2023/04/22 10:42:04;;;;;;;9.03;5.13;;;;;;;21.33;55.02;97367.44;4970226;28;20221;-76
2023/04/22 10:44:46;;;;;;;5.43;2.83;;;;;;;21.53;56.02;97379.22;4970880;28;20232;-75
2023/04/22 10:47:24;;;;;;;2.47;2.20;;;;;;;21.75;53.78;97348.66;4970780;28;20679;-77
2023/04/22 10:49:51;;;;;;;4.80;2.67;;;;;;;21.81;52.40;97328.19;4969778;28;20230;-76
2023/04/22 10:52:28;;;;;;;2.77;2.10;;;;;;;21.89;51.16;97323.50;4970025;28;20213;-79
2023/04/22 10:55:01;;;;;;;6.70;2.90;;;;;;;22.12;53.05;97344.81;4970344;28;20281;-76
2023/04/22 10:57:40;;;;;;;4.40;3.13;;;;;;;22.16;53.57;97346.91;4970272;28;20571;-76
2023/04/22 11:00:21;;;;;;;3.17;2.50;;;;;;;22.15;52.63;97334.47;4969568;28;20217;-77
2023/04/22 11:02:52;;;;;;;5.10;2.73;;;;;;;22.22;51.03;97319.19;4969601;28;20241;-77
2023/04/22 11:05:20;;;;;;;8.17;4.07;;;;;;;22.35;52.04;97329.19;4970097;28;20232;-76
2023/04/22 11:07:49;;;;;;;2.00;1.87;;;;;;;22.36;50.69;97310.16;4969465;28;20637;-76
2023/04/22 11:10:32;;;;;;;2.63;1.83;;;;;;;22.41;50.35;97312.25;4969376;28;20206;-76
2023/04/22 11:12:58;;;;;;;1.97;1.70;;;;;;;22.33;47.93;97280.94;4969957;28;20231;-75
2023/04/22 11:15:26;;;;;;;2.67;1.97;;;;;;;22.49;50.16;97307.56;4970378;28;20578;-76
2023/04/22 11:17:54;;;;;;;2.20;2.00;;;;;;;22.60;49.14;97296.22;4969726;28;20215;-75
2023/04/22 11:20:21;;;;;;;2.00;1.80;;;;;;;22.67;48.21;97286.31;4969497;28;20281;-75
2023/04/22 11:22:50;;;;;;;2.17;1.87;;;;;;;22.72;48.56;97302.69;4969762;28;20675;-76
2023/04/22 11:25:17;;;;;;;2.63;1.80;;;;;;;22.82;45.67;97256.50;4969816;28;20730;-76
2023/04/22 11:27:44;;;;;;;2.67;1.77;;;;;;;22.81;44.95;97255.66;4969778;28;20214;-75
2023/04/22 11:30:13;;;;;;;2.20;1.53;;;;;;;22.61;43.47;97232.41;4969577;28;20214;-77